createdAt,value
2023-05-17T15:20:42.334Z,14.29
2023-05-17T15:21:42.247Z,14.44
2023-05-17T15:22:42.304Z,14.51
2023-05-17T15:23:42.172Z,14.53
2023-05-17T15:24:42.139Z,14.50
2023-05-17T15:25:42.123Z,14.43
2023-05-17T15:26:42.158Z,14.37
2023-05-17T15:27:42.106Z,14.37
2023-05-17T15:28:42.016Z,14.33
2023-05-17T15:29:41.995Z,14.35
2023-05-17T15:30:41.966Z,14.48
2023-05-17T15:31:41.891Z,14.43
2023-05-17T15:32:41.951Z,14.58
2023-05-17T15:33:41.902Z,14.60
2023-05-17T15:34:41.906Z,14.70
2023-05-17T15:35:41.736Z,14.69
2023-05-17T15:36:41.733Z,14.68
2023-05-17T15:37:41.888Z,14.81
2023-05-17T15:38:41.638Z,14.89
2023-05-17T15:39:41.668Z,14.94
2023-05-17T15:40:41.588Z,14.97
2023-05-17T15:41:41.534Z,14.97
2023-05-17T15:42:41.478Z,14.94
2023-05-17T15:43:41.435Z,14.78
2023-05-17T15:44:41.398Z,14.68
2023-05-17T15:45:41.412Z,14.63
2023-05-17T15:46:41.352Z,14.51
2023-05-17T15:47:43.691Z,14.45
2023-05-17T15:48:41.441Z,14.35
2023-05-17T15:49:41.254Z,14.30
2023-05-17T15:50:41.233Z,14.17
2023-05-17T15:51:41.150Z,14.08
2023-05-17T15:52:41.116Z,14.04
2023-05-17T15:53:41.064Z,14.05
2023-05-17T15:54:41.077Z,14.05
2023-05-17T15:55:40.989Z,13.90
2023-05-17T15:56:41.031Z,13.85
2023-05-17T15:57:40.913Z,13.81
2023-05-17T15:58:40.899Z,13.86
2023-05-17T15:59:40.877Z,13.83
2023-05-17T16:00:40.888Z,13.86
2023-05-17T16:01:40.781Z,13.93
2023-05-17T16:02:41.642Z,13.99
2023-05-17T16:03:40.852Z,13.97
2023-05-17T16:04:40.679Z,14.03
2023-05-17T16:05:40.753Z,14.14
2023-05-17T16:06:40.748Z,14.14
2023-05-17T16:07:40.747Z,14.26
2023-05-17T16:08:40.934Z,14.29
2023-05-17T16:09:40.852Z,14.43
2023-05-17T16:10:40.489Z,14.47
2023-05-17T16:11:40.452Z,14.54
2023-05-17T16:12:40.431Z,14.53
2023-05-17T16:13:40.380Z,14.44
2023-05-17T16:14:40.351Z,14.55
2023-05-17T16:15:40.413Z,14.62
2023-05-17T16:16:40.461Z,14.66
2023-05-17T16:17:40.296Z,14.62
2023-05-17T16:18:40.307Z,14.59
2023-05-17T16:19:40.323Z,14.45
2023-05-17T16:20:40.314Z,14.18
2023-05-17T16:21:40.092Z,14.22
2023-05-17T16:22:41.061Z,14.15
2023-05-17T16:23:40.009Z,14.15
2023-05-17T16:24:40.040Z,14.00
2023-05-17T16:25:40.055Z,13.92
2023-05-17T16:26:39.921Z,13.78
2023-05-17T16:27:39.890Z,13.71
2023-05-17T16:28:40.019Z,13.65
2023-05-17T16:29:40.157Z,13.57
2023-05-17T16:30:40.084Z,13.47
2023-05-17T16:31:39.750Z,13.39
2023-05-17T16:32:39.832Z,13.41
2023-05-17T16:33:39.738Z,13.31
2023-05-17T16:34:39.655Z,13.31
2023-05-17T16:35:40.512Z,13.28
2023-05-17T16:36:39.604Z,13.27
2023-05-17T16:37:39.587Z,13.22
2023-05-17T16:38:39.550Z,13.09
2023-05-17T16:39:39.534Z,13.03
2023-05-17T16:40:39.648Z,12.91
2023-05-17T16:41:39.516Z,12.86
2023-05-17T16:42:39.479Z,12.87
2023-05-17T16:43:40.418Z,12.93
2023-05-17T16:44:39.388Z,12.87
2023-05-17T16:45:39.536Z,12.91
2023-05-17T16:46:39.436Z,12.87
2023-05-17T16:47:39.494Z,12.79
2023-05-17T16:48:39.279Z,12.83
2023-05-17T16:49:39.270Z,12.83
2023-05-17T16:50:39.270Z,12.73
2023-05-17T16:51:39.328Z,12.79
2023-05-17T16:52:39.213Z,12.80
2023-05-17T16:53:39.220Z,12.76
2023-05-17T16:54:39.175Z,12.73
2023-05-17T16:55:39.211Z,12.70
2023-05-17T16:56:39.150Z,12.73
2023-05-17T16:57:39.126Z,12.80
2023-05-17T16:58:39.110Z,12.85
2023-05-17T16:59:39.113Z,12.80
2023-05-17T17:00:39.119Z,12.80
2023-05-17T17:01:39.114Z,12.98
2023-05-17T17:02:39.040Z,12.85
2023-05-17T17:03:39.118Z,12.90
2023-05-17T17:04:38.980Z,12.86
2023-05-17T17:05:39.018Z,12.93
2023-05-17T17:06:39.031Z,12.93
2023-05-17T17:07:38.930Z,12.90
2023-05-17T17:08:38.899Z,12.90
2023-05-17T17:09:38.877Z,13.00
2023-05-17T17:10:38.968Z,13.01
2023-05-17T17:11:38.840Z,12.90
2023-05-17T17:12:38.906Z,13.03
2023-05-17T17:13:38.827Z,12.98
2023-05-17T17:14:38.768Z,13.08
2023-05-17T17:15:38.819Z,13.08
2023-05-17T17:16:38.814Z,13.01
2023-05-17T17:17:38.736Z,13.12
2023-05-17T17:18:38.701Z,13.12
2023-05-17T17:19:38.662Z,13.09
2023-05-17T17:20:38.706Z,13.05
2023-05-17T17:21:38.623Z,13.12
2023-05-17T17:22:38.603Z,13.03
2023-05-17T17:23:38.573Z,13.05
2023-05-17T17:24:38.570Z,13.04
2023-05-17T17:25:38.527Z,13.03
2023-05-17T17:26:38.589Z,13.01
2023-05-17T17:27:38.513Z,12.97
2023-05-17T17:28:38.520Z,12.93
2023-05-17T17:29:38.451Z,12.90
2023-05-17T17:30:38.505Z,12.90
2023-05-17T17:31:38.474Z,12.87
2023-05-17T17:32:38.456Z,12.83
2023-05-17T17:33:38.428Z,12.73
2023-05-17T17:34:38.335Z,12.70
2023-05-17T17:35:38.403Z,12.61
2023-05-17T17:36:38.327Z,12.62
2023-05-17T17:37:38.376Z,12.49
2023-05-17T17:38:38.270Z,12.49
2023-05-17T17:39:38.283Z,12.46
2023-05-17T17:40:38.259Z,12.37
2023-05-17T17:41:38.249Z,12.36
2023-05-17T17:42:38.282Z,12.37
2023-05-17T17:43:38.225Z,12.35
2023-05-17T17:44:38.241Z,12.32
2023-05-17T17:45:38.167Z,12.29
2023-05-17T17:46:38.206Z,12.28
2023-05-17T17:47:38.261Z,12.22
2023-05-17T17:48:38.119Z,12.27
2023-05-17T17:49:38.115Z,12.25
2023-05-17T17:50:38.132Z,12.31
2023-05-17T17:51:38.153Z,12.36
2023-05-17T17:52:38.080Z,12.27
2023-05-17T17:53:38.052Z,12.29
2023-05-17T17:54:38.043Z,12.25
2023-05-17T17:55:38.042Z,12.36
2023-05-17T17:56:38.013Z,12.36
2023-05-17T17:57:38.066Z,12.27
2023-05-17T17:58:37.995Z,12.27
2023-05-17T17:59:37.956Z,12.18
2023-05-17T18:00:38.001Z,12.22
2023-05-17T18:01:38.230Z,12.22
2023-05-17T18:02:38.057Z,12.18
2023-05-17T18:03:37.997Z,12.21
2023-05-17T18:04:37.950Z,12.22
2023-05-17T18:05:37.890Z,12.21
2023-05-17T18:06:37.858Z,12.21
2023-05-17T18:07:37.940Z,12.22
2023-05-17T18:08:37.909Z,12.20
2023-05-17T18:09:37.845Z,12.20
2023-05-17T18:10:37.870Z,12.15
2023-05-17T18:11:37.801Z,12.10
2023-05-17T18:12:37.797Z,12.17
2023-05-17T18:13:37.813Z,12.12
2023-05-17T18:14:37.851Z,12.07
2023-05-17T18:15:37.813Z,12.13
2023-05-17T18:16:38.003Z,12.09
2023-05-17T18:17:37.855Z,12.10
2023-05-17T18:18:37.746Z,12.13
2023-05-17T18:19:37.792Z,12.09
2023-05-17T18:20:37.710Z,12.09
2023-05-17T18:21:37.729Z,12.06
2023-05-17T18:22:37.709Z,12.06
2023-05-17T18:23:37.694Z,12.04
2023-05-17T18:24:37.753Z,12.00
2023-05-17T18:25:37.698Z,11.91
2023-05-17T18:26:37.652Z,11.97
2023-05-17T18:27:37.647Z,11.99
2023-05-17T18:28:41.890Z,11.94
2023-05-17T18:29:38.670Z,11.87
2023-05-17T18:30:37.632Z,11.97
2023-05-17T18:31:37.619Z,11.91
2023-05-17T18:32:37.778Z,11.83
2023-05-17T18:33:37.630Z,11.86
2023-05-17T18:34:37.629Z,11.87
2023-05-17T18:35:37.541Z,11.90
2023-05-17T18:36:37.610Z,11.87
2023-05-17T18:37:37.513Z,11.77
2023-05-17T18:38:37.497Z,11.80
2023-05-17T18:39:37.589Z,11.73
2023-05-17T18:40:37.487Z,11.75
2023-05-17T18:41:37.520Z,11.70
2023-05-17T18:42:37.476Z,11.70
2023-05-17T18:43:37.422Z,11.68
2023-05-17T18:44:37.423Z,11.60
2023-05-17T18:45:37.397Z,11.66
2023-05-17T18:46:37.600Z,11.62
2023-05-17T18:47:37.386Z,11.66
2023-05-17T18:48:37.383Z,11.66
2023-05-17T18:49:37.340Z,11.57
2023-05-17T18:50:37.332Z,11.63
2023-05-17T18:51:37.385Z,11.52
2023-05-17T18:52:37.317Z,11.59
2023-05-17T18:53:37.300Z,11.50
2023-05-17T18:54:37.290Z,11.44
2023-05-17T18:55:37.359Z,11.37
2023-05-17T18:56:37.282Z,11.44
2023-05-17T18:57:37.320Z,11.35
2023-05-17T18:58:37.259Z,11.37
2023-05-17T18:59:37.264Z,11.29
2023-05-17T19:00:37.392Z,11.27
2023-05-17T19:01:37.238Z,11.22
2023-05-17T19:02:37.254Z,11.18
2023-05-17T19:03:37.316Z,11.22
2023-05-17T19:04:37.395Z,11.15
2023-05-17T19:05:37.275Z,11.00
2023-05-17T19:06:37.286Z,11.10
2023-05-17T19:07:37.223Z,10.96
2023-05-17T19:08:37.195Z,10.87
2023-05-17T19:09:37.311Z,10.92
2023-05-17T19:10:37.291Z,10.86
2023-05-17T19:11:37.200Z,10.87
2023-05-17T19:12:37.201Z,10.78
2023-05-17T19:13:37.214Z,10.71
2023-05-17T19:14:37.176Z,10.75
2023-05-17T19:15:37.274Z,10.68
2023-05-17T19:16:37.220Z,10.71
2023-05-17T19:17:37.297Z,10.64
2023-05-17T19:18:37.234Z,10.57
2023-05-17T19:19:37.228Z,10.59
2023-05-17T19:20:37.270Z,10.56
2023-05-17T19:21:37.265Z,10.54
2023-05-17T19:22:37.244Z,10.56
2023-05-17T19:23:37.200Z,10.53
2023-05-17T19:24:37.196Z,10.53
2023-05-17T19:25:37.550Z,10.38
2023-05-17T19:26:37.239Z,10.42
2023-05-17T19:27:37.227Z,10.40
2023-05-17T19:28:37.276Z,10.40
2023-05-17T19:29:37.271Z,10.37
2023-05-17T19:30:37.367Z,10.37
2023-05-17T19:31:37.383Z,10.33
2023-05-17T19:32:37.338Z,10.35
2023-05-17T19:33:37.285Z,10.30
2023-05-17T19:34:37.299Z,10.20
2023-05-17T19:35:37.352Z,10.23
2023-05-17T19:36:37.335Z,10.23
2023-05-17T19:37:37.362Z,10.19
2023-05-17T19:38:37.299Z,10.16
2023-05-17T19:39:37.317Z,10.17
2023-05-17T19:40:37.404Z,10.17
2023-05-17T19:41:37.336Z,10.17
2023-05-17T19:42:37.415Z,10.02
2023-05-17T19:43:37.375Z,10.04
2023-05-17T19:44:37.361Z,10.07
2023-05-17T19:45:37.373Z,9.99
2023-05-17T19:46:37.392Z,10.05
2023-05-17T19:47:37.539Z,9.95
2023-05-17T19:48:37.402Z,9.99
2023-05-17T19:49:37.408Z,10.05
2023-05-17T19:50:37.424Z,9.98
2023-05-17T19:51:37.435Z,9.94
2023-05-17T19:52:37.670Z,9.84
2023-05-17T19:53:51.600Z,9.84
2023-05-17T19:54:38.481Z,9.89
2023-05-17T19:55:37.491Z,9.80
2023-05-17T19:56:37.492Z,9.82
2023-05-17T19:57:37.576Z,9.76
2023-05-17T19:58:37.548Z,9.79
2023-05-17T19:59:37.614Z,9.76
2023-05-17T20:00:38.096Z,9.64
2023-05-17T20:01:37.725Z,9.61
2023-05-17T20:02:37.726Z,9.61
2023-05-17T20:03:37.737Z,9.58
2023-05-17T20:04:37.620Z,9.51
2023-05-17T20:05:37.629Z,9.51
2023-05-17T20:06:37.672Z,9.51
2023-05-17T20:07:37.711Z,9.48
2023-05-17T20:08:37.662Z,9.44
2023-05-17T20:09:37.664Z,9.43
2023-05-17T20:10:37.674Z,9.39
2023-05-17T20:11:37.776Z,9.46
2023-05-17T20:12:37.763Z,9.41
2023-05-17T20:13:37.712Z,9.40
2023-05-17T20:14:37.794Z,9.44
2023-05-17T20:15:37.747Z,9.41
2023-05-17T20:16:37.974Z,9.36
2023-05-17T20:17:37.817Z,9.36
2023-05-17T20:18:38.673Z,9.41
2023-05-17T20:19:37.890Z,9.34
2023-05-17T20:20:37.828Z,9.34
2023-05-17T20:21:37.988Z,9.31
2023-05-17T20:22:37.839Z,9.25
2023-05-17T20:23:37.875Z,9.29
2023-05-17T20:24:38.029Z,9.28
2023-05-17T20:25:37.870Z,9.26
2023-05-17T20:26:37.906Z,9.26
2023-05-17T20:27:37.905Z,9.28
2023-05-17T20:28:37.922Z,9.29
2023-05-17T20:29:38.003Z,9.19
2023-05-17T20:30:37.931Z,9.21
2023-05-17T20:31:37.970Z,9.21
2023-05-17T20:32:38.014Z,9.19
2023-05-17T20:33:38.039Z,9.21
2023-05-17T20:34:38.047Z,9.16
2023-05-17T20:35:38.019Z,9.10
2023-05-17T20:36:38.033Z,9.11
2023-05-17T20:37:38.033Z,9.13
2023-05-17T20:38:38.056Z,9.13
2023-05-17T20:39:38.158Z,9.00
2023-05-17T20:40:38.167Z,9.08
2023-05-17T20:41:38.118Z,9.18
2023-05-17T20:42:38.118Z,9.10
2023-05-17T20:43:38.133Z,9.16
2023-05-17T20:44:38.219Z,9.13
2023-05-17T20:45:38.201Z,9.06
2023-05-17T20:46:38.220Z,9.13
2023-05-17T20:47:38.272Z,9.02
2023-05-17T20:48:38.277Z,9.10
2023-05-17T20:49:38.301Z,9.03
2023-05-17T20:50:38.325Z,9.11
2023-05-17T20:51:38.288Z,9.04
2023-05-17T20:52:39.813Z,9.00
2023-05-17T20:53:38.341Z,9.02
2023-05-17T20:54:38.306Z,8.95
2023-05-17T20:55:38.388Z,9.02
2023-05-17T20:56:38.376Z,8.95
2023-05-17T20:57:38.374Z,8.88
2023-05-17T20:58:38.386Z,8.85
2023-05-17T20:59:38.430Z,8.81
2023-05-17T21:00:38.472Z,8.79
2023-05-17T21:01:38.501Z,8.82
2023-05-17T21:02:38.645Z,8.87
2023-05-17T21:03:38.567Z,8.73
2023-05-17T21:04:38.520Z,8.74
2023-05-17T21:05:38.570Z,8.73
2023-05-17T21:06:38.557Z,8.74
2023-05-17T21:07:38.650Z,8.63
2023-05-17T21:08:38.628Z,8.69
2023-05-17T21:09:38.629Z,8.63
2023-05-17T21:10:38.646Z,8.69
2023-05-17T21:11:38.705Z,8.63
2023-05-17T21:12:39.034Z,8.60
2023-05-17T21:13:38.743Z,8.52
2023-05-17T21:14:38.750Z,8.55
2023-05-17T21:15:38.832Z,8.51
2023-05-17T21:16:38.839Z,8.56
2023-05-17T21:17:38.978Z,8.48
2023-05-17T21:18:38.910Z,8.55
2023-05-17T21:19:38.968Z,8.51
2023-05-17T21:20:38.911Z,8.56
2023-05-17T21:21:38.921Z,8.48
2023-05-17T21:22:39.102Z,8.45
2023-05-17T21:23:39.054Z,8.45
2023-05-17T21:24:39.056Z,8.44
2023-05-17T21:25:39.050Z,8.41
2023-05-17T21:26:40.874Z,8.44
2023-05-17T21:27:39.131Z,8.48
2023-05-17T21:28:39.536Z,8.42
2023-05-17T21:29:39.187Z,8.44
2023-05-17T21:30:39.240Z,8.37
2023-05-17T21:31:39.303Z,8.42
2023-05-17T21:32:39.286Z,8.34
2023-05-17T21:33:39.732Z,8.33
2023-05-17T21:34:39.365Z,8.42
2023-05-17T21:35:39.386Z,8.31
2023-05-17T21:36:39.408Z,8.31
2023-05-17T21:37:39.458Z,8.27
2023-05-17T21:38:39.564Z,8.31
2023-05-17T21:39:39.517Z,8.13
2023-05-17T21:40:39.661Z,8.20
2023-05-17T21:41:39.598Z,8.15
2023-05-17T21:42:39.698Z,8.20
2023-05-17T21:43:39.658Z,8.19
2023-05-17T21:44:39.711Z,8.15
2023-05-17T21:45:39.734Z,8.23
2023-05-17T21:46:39.831Z,8.20
2023-05-17T21:47:40.083Z,8.24
2023-05-17T21:48:39.822Z,8.19
2023-05-17T21:49:39.852Z,8.13
2023-05-17T21:50:39.884Z,8.15
2023-05-17T21:51:39.908Z,8.18
2023-05-17T21:52:40.026Z,8.13
2023-05-17T21:53:39.997Z,8.15
2023-05-17T21:54:39.997Z,8.08
2023-05-17T21:55:51.399Z,8.10
2023-05-17T21:56:41.095Z,8.09
2023-05-17T21:57:40.194Z,8.06
2023-05-17T21:58:40.141Z,8.16
2023-05-17T21:59:40.197Z,8.03
2023-05-17T22:00:40.225Z,8.01
2023-05-17T22:01:40.325Z,8.09
2023-05-17T22:02:40.408Z,8.08
2023-05-17T22:03:40.401Z,8.05
2023-05-17T22:04:41.136Z,8.01
2023-05-17T22:05:40.415Z,8.01
2023-05-17T22:06:40.430Z,8.01
2023-05-17T22:07:40.536Z,8.00
2023-05-17T22:08:40.550Z,8.00
2023-05-17T22:09:40.518Z,7.94
2023-05-17T22:10:40.619Z,7.94
2023-05-17T22:11:40.648Z,7.94
2023-05-17T22:12:40.663Z,7.94
2023-05-17T22:13:40.751Z,7.97
2023-05-17T22:14:40.698Z,7.83
2023-05-17T22:15:40.744Z,7.94
2023-05-17T22:16:40.894Z,7.88
2023-05-17T22:17:50.984Z,7.97
2023-05-17T22:18:42.060Z,7.79
2023-05-17T22:19:41.241Z,7.75
2023-05-17T22:20:40.942Z,7.77
2023-05-17T22:21:41.002Z,7.80
2023-05-17T22:22:41.010Z,7.73
2023-05-17T22:23:41.085Z,7.69
2023-05-17T22:24:41.077Z,7.66
2023-05-17T22:25:41.108Z,7.72
2023-05-17T22:26:41.181Z,7.76
2023-05-17T22:27:41.194Z,7.73
2023-05-17T22:28:41.315Z,7.72
2023-05-17T22:29:41.236Z,7.72
2023-05-17T22:30:41.321Z,7.69
2023-05-17T22:31:41.384Z,7.80
2023-05-17T22:32:41.423Z,7.70
2023-05-17T22:33:41.430Z,7.66
2023-05-17T22:34:41.407Z,7.70
2023-05-17T22:35:41.426Z,7.61
2023-05-17T22:36:41.482Z,7.60
2023-05-17T22:37:41.504Z,7.66
2023-05-17T22:38:41.594Z,7.63
2023-05-17T22:39:41.590Z,7.66
2023-05-17T22:40:41.617Z,7.60
2023-05-17T22:41:41.671Z,7.57
2023-05-17T22:42:41.733Z,7.61
2023-05-17T22:43:41.804Z,7.56
2023-05-17T22:44:41.792Z,7.56
2023-05-17T22:45:41.829Z,7.61
2023-05-17T22:46:41.938Z,7.58
2023-05-17T22:47:41.949Z,7.60
2023-05-17T22:48:42.166Z,7.61
2023-05-17T22:49:42.091Z,7.51
2023-05-17T22:50:41.998Z,7.58
2023-05-17T22:51:42.307Z,7.56
2023-05-17T22:52:42.150Z,7.48
2023-05-17T22:53:42.178Z,7.47
2023-05-17T22:54:42.209Z,7.40
2023-05-17T22:55:42.187Z,7.43
2023-05-17T22:56:42.232Z,7.32
2023-05-17T22:57:42.281Z,7.35
2023-05-17T22:58:42.308Z,7.35
2023-05-17T22:59:42.400Z,7.32
2023-05-17T23:00:42.373Z,7.36
2023-05-17T23:01:42.507Z,7.32
2023-05-17T23:02:42.543Z,7.33
2023-05-17T23:03:42.594Z,7.28
2023-05-17T23:04:42.575Z,7.31
2023-05-17T23:05:42.578Z,7.31
2023-05-17T23:06:42.627Z,7.29
2023-05-17T23:07:42.663Z,7.35
2023-05-17T23:08:42.811Z,7.33
2023-05-17T23:09:42.796Z,7.29
2023-05-17T23:10:42.793Z,7.25
2023-05-17T23:11:42.846Z,7.36
2023-05-17T23:12:42.867Z,7.25
2023-05-17T23:13:42.971Z,7.29
2023-05-17T23:14:42.989Z,7.23
2023-05-17T23:15:43.020Z,7.29
2023-05-17T23:16:43.159Z,7.36
2023-05-17T23:17:43.107Z,7.32
2023-05-17T23:18:43.220Z,7.29
2023-05-17T23:19:43.182Z,7.29
2023-05-17T23:20:43.254Z,7.31
2023-05-17T23:21:43.340Z,7.28
2023-05-17T23:22:43.307Z,7.25
2023-05-17T23:23:43.374Z,7.29
2023-05-17T23:24:43.496Z,7.14
2023-05-17T23:25:43.457Z,7.28
2023-05-17T23:26:43.524Z,7.24
2023-05-17T23:27:43.540Z,7.21
2023-05-17T23:28:43.621Z,7.17
2023-05-17T23:29:43.693Z,7.15
2023-05-17T23:30:43.700Z,7.17
2023-05-17T23:31:43.758Z,7.23
2023-05-17T23:32:43.785Z,7.18
2023-05-17T23:33:43.814Z,7.20
2023-05-17T23:34:43.920Z,7.10
2023-05-17T23:35:43.896Z,7.11
2023-05-17T23:36:43.975Z,7.10
2023-05-17T23:37:44.000Z,6.99
2023-05-17T23:38:44.052Z,7.05
2023-05-17T23:39:44.152Z,7.03
2023-05-17T23:40:44.129Z,6.97
2023-05-17T23:41:44.169Z,7.06
2023-05-17T23:42:44.275Z,6.99
2023-05-17T23:43:44.337Z,7.03
2023-05-17T23:44:44.348Z,7.00
2023-05-17T23:45:44.370Z,6.93
2023-05-17T23:46:44.615Z,6.87
2023-05-17T23:47:44.573Z,6.93
2023-05-17T23:48:44.605Z,6.87
2023-05-17T23:49:44.683Z,6.84
2023-05-17T23:50:44.650Z,6.81
2023-05-17T23:51:44.665Z,6.92
2023-05-17T23:52:44.743Z,6.87
2023-05-17T23:53:44.849Z,6.74
2023-05-17T23:54:44.836Z,6.79
2023-05-17T23:55:44.902Z,6.81
2023-05-17T23:56:44.994Z,6.81
2023-05-17T23:57:44.983Z,6.78
2023-05-17T23:58:45.103Z,6.87
2023-05-17T23:59:45.173Z,6.79
